Time;durP1;ratioP1;P1;durP2;ratioP2;P2;SDS_P1;SDS_P2;PMS_P1;PMS_P2;Temp;Humidity;BMP_temperature;BMP_pressure;BME280_temperature;BME280_humidity;BME280_pressure;Samples;Min_cycle;Max_cycle;Signal;HPM_P1;HPM_P2
2021/06/05 00:00:56;;;;;;;14.75;5.95;;;;;;;11.27;77.81;100427.58;1695473;84;20993;-80
2021/06/05 00:05:41;;;;;;;10.50;6.40;;;;;;;11.22;77.73;100416.31;1795771;79;27467;-81
2021/06/05 00:08:08;;;;;;;10.63;6.35;;;;;;;11.13;78.20;100422.79;1747835;80;21010;-77
2021/06/05 00:10:41;;;;;;;14.80;5.87;;;;;;;11.07;78.38;100420.36;1747140;82;21943;-79
2021/06/05 00:13:14;;;;;;;11.68;5.55;;;;;;;11.02;78.46;100422.30;1747341;82;21053;-79
2021/06/05 00:15:44;;;;;;;9.75;6.05;;;;;;;10.97;78.41;100421.56;1747360;82;21497;-80
2021/06/05 00:18:12;;;;;;;8.38;5.42;;;;;;;10.93;78.34;100410.75;1747315;82;21037;-79
2021/06/05 00:20:40;;;;;;;9.60;5.25;;;;;;;10.91;78.21;100413.89;1747419;82;21013;-77
2021/06/05 00:23:14;;;;;;;12.18;5.22;;;;;;;10.90;79.20;100417.42;1747686;82;21156;-79
2021/06/05 00:25:39;;;;;;;10.20;5.33;;;;;;;10.88;78.91;100415.29;1746854;82;21036;-77
2021/06/05 00:28:06;;;;;;;8.40;4.58;;;;;;;10.86;79.07;100407.92;1732128;82;21532;-76
2021/06/05 00:30:34;;;;;;;12.23;5.83;;;;;;;10.83;79.51;100410.64;1729394;82;21076;-78
2021/06/05 00:33:02;;;;;;;9.50;5.55;;;;;;;10.80;79.07;100410.75;1747454;82;21570;-78
2021/06/05 00:35:30;;;;;;;11.70;5.78;;;;;;;10.76;79.04;100417.88;1747501;82;21685;-76
2021/06/05 00:38:04;;;;;;;16.05;6.00;;;;;;;10.71;78.91;100415.40;1746474;79;21174;-77
2021/06/05 00:40:34;;;;;;;11.25;6.33;;;;;;;10.66;79.32;100421.28;1645409;87;21037;-79
2021/06/05 00:43:01;;;;;;;;;;;;;;;10.63;80.08;100421.39;1640444;87;21609;-81
2021/06/05 00:45:31;;;;;;;15.50;6.87;;;;;;;10.60;79.99;100421.47;1647046;87;20211;-82
2021/06/05 00:47:59;;;;;;;13.22;5.78;;;;;;;10.56;80.11;100418.55;1638181;87;22125;-83
2021/06/05 00:50:27;;;;;;;9.60;5.42;;;;;;;10.51;80.21;100421.77;1648370;84;21089;-83
2021/06/05 00:53:08;;;;;;;16.23;5.92;;;;;;;10.48;80.24;100420.56;1656786;86;21032;-81
2021/06/05 00:55:41;;;;;;;9.15;5.30;;;;;;;10.45;81.57;100428.57;1746198;80;21442;-76
2021/06/05 00:58:09;;;;;;;8.83;5.35;;;;;;;10.34;80.95;100409.61;1719894;82;21054;-74
2021/06/05 01:01:00;;;;;;;10.08;6.00;;;;;;;10.34;80.78;100419.68;1706103;82;22154;-76
2021/06/05 01:03:27;;;;;;;11.20;5.37;;;;;;;10.31;81.62;100420.22;1663262;86;21099;-76
2021/06/05 01:06:02;;;;;;;11.08;5.90;;;;;;;10.26;81.51;100423.84;1685557;85;21063;-77
2021/06/05 01:08:37;;;;;;;11.20;5.80;;;;;;;10.25;81.35;100425.20;1680621;80;21395;-83
2021/06/05 01:11:20;;;;;;;11.40;5.03;;;;;;;10.24;82.39;100424.81;1660761;85;21086;-83
2021/06/05 01:14:08;;;;;;;13.13;6.67;;;;;;;10.23;81.91;100423.92;1660829;85;21083;-83
2021/06/05 01:16:35;;;;;;;11.78;6.00;;;;;;;10.24;82.60;100425.66;1656742;86;21088;-83
2021/06/05 01:19:15;;;;;;;11.25;5.97;;;;;;;10.19;82.19;100424.95;1656833;85;21069;-83
2021/06/05 01:22:05;;;;;;;10.03;5.15;;;;;;;10.13;81.77;100423.81;1659278;86;21148;-84
2021/06/05 01:24:49;;;;;;;10.32;5.67;;;;;;;10.10;81.78;100422.59;1638493;81;21619;-78
2021/06/05 01:27:24;;;;;;;20.00;5.95;;;;;;;10.07;82.12;100422.67;1663272;86;21198;-79
2021/06/05 01:29:55;;;;;;;11.18;6.72;;;;;;;10.04;81.88;100422.77;1662636;86;21112;-78
2021/06/05 01:32:22;;;;;;;13.10;6.55;;;;;;;10.01;81.91;100422.41;1631867;86;21077;-78
2021/06/05 01:34:54;;;;;;;10.58;5.83;;;;;;;9.96;82.46;100426.08;1662968;86;21618;-78
2021/06/05 01:37:25;;;;;;;15.68;6.55;;;;;;;9.92;82.31;100421.84;1650731;85;21606;-78
2021/06/05 01:39:54;;;;;;;8.23;5.95;;;;;;;9.91;82.74;100422.27;1657125;81;21170;-79
2021/06/05 01:42:27;;;;;;;9.18;6.00;;;;;;;9.88;82.86;100421.05;1720814;83;21132;-80
2021/06/05 01:44:56;;;;;;;15.08;6.65;;;;;;;9.86;82.98;100421.08;1720500;83;21623;-79
2021/06/05 01:47:22;;;;;;;9.05;6.42;;;;;;;9.82;83.48;100422.11;1720648;83;22493;-80
2021/06/05 01:49:51;;;;;;;11.68;5.97;;;;;;;9.81;83.25;100426.94;1720535;83;21037;-77
2021/06/05 01:52:22;;;;;;;11.57;6.00;;;;;;;9.80;83.09;100429.17;1720799;82;21838;-78
2021/06/05 01:55:02;;;;;;;12.68;6.65;;;;;;;9.77;83.19;100425.30;1688571;80;21028;-79
2021/06/05 01:57:33;;;;;;;12.88;6.40;;;;;;;9.76;83.23;100424.05;1653069;85;21036;-77
2021/06/05 02:00:01;;;;;;;10.35;6.60;;;;;;;9.74;83.67;100422.77;1637610;84;21100;-77
2021/06/05 02:02:30;;;;;;;9.38;5.58;;;;;;;9.71;83.94;100425.50;1637130;84;21035;-77
2021/06/05 02:04:59;;;;;;;15.83;5.85;;;;;;;9.70;83.84;100421.13;1638435;87;21155;-78
2021/06/05 02:07:27;;;;;;;8.35;6.00;;;;;;;9.70;83.86;100416.33;1643438;86;21515;-77
2021/06/05 02:09:56;;;;;;;13.75;6.47;;;;;;;9.69;83.65;100414.16;1699348;81;21124;-76
2021/06/05 02:12:31;;;;;;;22.35;6.53;;;;;;;9.71;83.71;100416.72;1743756;81;21066;-75
2021/06/05 02:15:08;;;;;;;14.65;7.15;;;;;;;9.68;83.81;100416.36;1720128;83;21076;-74
2021/06/05 02:17:36;;;;;;;12.70;6.78;;;;;;;9.68;83.82;100412.41;1720931;83;21208;-74
2021/06/05 02:20:12;;;;;;;10.75;5.75;;;;;;;9.68;83.98;100409.78;1721007;83;21204;-74
2021/06/05 02:22:42;;;;;;;18.10;8.35;;;;;;;9.70;84.68;100413.23;1720865;83;21066;-73
2021/06/05 02:25:14;;;;;;;22.22;9.68;;;;;;;9.74;84.71;100415.34;1658372;82;21659;-76
2021/06/05 02:27:41;;;;;;;20.30;9.08;;;;;;;9.76;84.49;100410.90;1634677;87;21104;-77
2021/06/05 02:30:14;;;;;;;19.37;7.62;;;;;;;9.76;84.45;100413.06;1627827;87;21102;-78
2021/06/05 02:32:42;;;;;;;13.35;6.78;;;;;;;9.77;84.50;100413.46;1608599;89;21074;-77
2021/06/05 02:35:13;;;;;;;11.10;5.83;;;;;;;9.78;84.78;100415.20;1608676;89;21085;-77
2021/06/05 02:37:46;;;;;;;9.93;5.97;;;;;;;9.82;84.54;100410.27;1606801;88;21069;-77
2021/06/05 02:40:18;;;;;;;12.90;6.15;;;;;;;9.87;84.46;100410.13;1599588;81;21216;-83
2021/06/05 02:42:46;;;;;;;10.05;5.80;;;;;;;9.94;84.51;100406.84;1578634;88;21083;-83
2021/06/05 02:45:21;;;;;;;11.93;5.75;;;;;;;10.05;84.15;100401.69;1602878;88;21042;-83
2021/06/05 02:47:57;;;;;;;11.40;5.65;;;;;;;10.19;84.06;100406.52;1635216;87;21039;-85
2021/06/05 02:50:36;;;;;;;8.58;5.47;;;;;;;10.33;83.81;100402.18;1649613;86;21400;-84
2021/06/05 02:53:06;;;;;;;10.90;5.25;;;;;;;10.46;83.24;100405.27;1649712;86;21054;-83
2021/06/05 02:55:33;;;;;;;13.58;5.05;;;;;;;10.57;83.08;100399.20;1674212;81;21644;-72
2021/06/05 02:58:01;;;;;;;10.75;5.55;;;;;;;10.70;82.54;100391.77;1646321;85;21047;-75
2021/06/05 03:00:33;;;;;;;13.45;5.78;;;;;;;10.82;82.16;100397.08;1634326;86;21153;-77
2021/06/05 03:03:01;;;;;;;10.55;5.37;;;;;;;10.92;82.09;100394.52;1660255;86;21050;-78
2021/06/05 03:05:28;;;;;;;10.40;5.60;;;;;;;11.03;81.69;100401.60;1659853;85;21124;-75
2021/06/05 03:07:56;;;;;;;11.15;4.90;;;;;;;11.12;81.48;100400.43;1660346;86;21639;-78
2021/06/05 03:10:26;;;;;;;7.28;5.10;;;;;;;11.21;81.36;100398.78;1674301;81;21078;-88
2021/06/05 03:12:54;;;;;;;9.75;5.37;;;;;;;11.30;80.95;100395.82;1661675;85;22288;-87
2021/06/05 03:15:24;;;;;;;15.05;5.67;;;;;;;11.42;81.02;100397.16;1650714;86;21115;-91
2021/06/05 03:17:51;;;;;;;8.40;4.90;;;;;;;11.54;80.72;100395.84;1659033;85;21036;-89
2021/06/05 03:20:21;;;;;;;12.60;5.80;;;;;;;11.66;80.24;100394.52;1662430;86;21145;-90
2021/06/05 03:22:47;;;;;;;8.35;5.80;;;;;;;11.78;79.94;100393.20;1662514;86;20988;-87
2021/06/05 03:25:17;;;;;;;12.43;5.70;;;;;;;11.94;79.56;100391.30;1690684;81;21124;-75
2021/06/05 03:27:45;;;;;;;11.03;5.92;;;;;;;12.15;79.12;100397.98;1733038;82;21044;-74
2021/06/05 03:30:15;;;;;;;9.90;5.83;;;;;;;12.36;78.81;100392.30;1746056;82;21804;-79
2021/06/05 03:32:43;;;;;;;8.43;5.00;;;;;;;12.58;78.12;100388.31;1744890;82;21602;-74
2021/06/05 03:35:13;;;;;;;7.78;4.37;;;;;;;12.84;77.51;100391.64;1744328;80;21060;-74
2021/06/05 03:37:41;;;;;;;12.35;4.67;;;;;;;13.09;76.62;100385.73;1726861;82;21647;-74
2021/06/05 03:40:12;;;;;;;8.98;4.40;;;;;;;13.35;74.97;100382.44;1719503;81;21072;-83
2021/06/05 03:42:39;;;;;;;12.73;4.12;;;;;;;13.58;76.14;100387.55;1681195;84;21134;-78
2021/06/05 03:45:09;;;;;;;9.28;4.05;;;;;;;13.80;73.15;100390.52;1705795;83;21864;-79
2021/06/05 03:47:37;;;;;;;7.37;4.40;;;;;;;13.98;72.98;100380.39;1702897;83;21103;-78
2021/06/05 03:50:07;;;;;;;10.63;4.65;;;;;;;14.15;71.65;100384.03;1682316;84;21633;-76
2021/06/05 03:52:35;;;;;;;9.25;4.40;;;;;;;14.32;69.37;100380.59;1702673;83;21582;-78
2021/06/05 03:55:04;;;;;;;10.50;4.40;;;;;;;14.56;69.59;100378.55;1687984;79;21056;-76
2021/06/05 03:57:33;;;;;;;7.12;3.90;;;;;;;14.80;68.18;100378.66;1672792;84;21107;-74
2021/06/05 04:00:03;;;;;;;14.28;3.92;;;;;;;15.00;67.06;100362.18;1671090;85;21788;-75
2021/06/05 04:02:33;;;;;;;8.35;4.00;;;;;;;15.46;68.38;100379.22;1659977;86;21555;-76
2021/06/05 04:05:00;;;;;;;4.37;3.30;;;;;;;15.83;65.05;100380.39;1661567;86;21072;-75
2021/06/05 04:07:27;;;;;;;8.78;3.60;;;;;;;16.16;63.78;100381.63;1659263;86;21057;-75
2021/06/05 04:09:55;;;;;;;12.28;3.58;;;;;;;16.48;63.16;100371.83;1670533;81;21098;-79
2021/06/05 04:12:22;;;;;;;6.40;3.60;;;;;;;16.80;60.18;100377.11;1667298;85;21571;-79
2021/06/05 04:14:50;;;;;;;18.60;4.00;;;;;;;17.07;59.17;100365.75;1668782;84;21150;-78
2021/06/05 04:17:20;;;;;;;6.62;3.60;;;;;;;17.35;58.79;100363.62;1684402;85;21771;-81
2021/06/05 04:19:47;;;;;;;5.90;2.33;;;;;;;17.66;58.33;100377.20;1684994;85;21634;-79
2021/06/05 04:22:14;;;;;;;11.35;3.75;;;;;;;18.02;57.99;100371.87;1683952;83;21629;-69
2021/06/05 04:24:41;;;;;;;7.83;3.58;;;;;;;18.34;54.63;100377.77;1668454;80;21069;-73
2021/06/05 04:27:08;;;;;;;5.70;3.15;;;;;;;18.60;55.08;100364.04;1654059;86;21088;-73
2021/06/05 04:29:35;;;;;;;8.23;3.22;;;;;;;18.83;54.08;100364.34;1654774;86;21088;-73
2021/06/05 04:32:06;;;;;;;11.00;3.52;;;;;;;19.04;52.43;100360.20;1643159;85;21132;-72
2021/06/05 04:34:33;;;;;;;6.62;3.15;;;;;;;19.27;51.75;100359.09;1623552;88;21193;-73
2021/06/05 04:37:00;;;;;;;4.67;2.85;;;;;;;19.54;49.87;100355.46;1685172;85;21073;-74
2021/06/05 04:39:28;;;;;;;9.98;3.20;;;;;;;19.74;49.04;100356.27;1685126;79;21032;-69
2021/06/05 04:41:55;;;;;;;5.78;2.92;;;;;;;19.94;48.43;100349.95;1691755;84;20993;-69
2021/06/05 04:44:22;;;;;;;12.95;3.20;;;;;;;20.13;47.15;100355.68;1692069;84;21087;-71
2021/06/05 04:46:49;;;;;;;8.55;3.22;;;;;;;20.30;48.02;100347.73;1692021;84;22077;-70
2021/06/05 04:49:17;;;;;;;9.10;2.90;;;;;;;20.50;47.13;100346.27;1692416;84;21059;-69
2021/06/05 04:51:45;;;;;;;5.78;2.70;;;;;;;20.73;46.07;100344.06;1692533;84;21598;-70
2021/06/05 04:54:13;;;;;;;7.20;3.00;;;;;;;20.93;46.14;100345.69;1691650;79;21094;-72
2021/06/05 04:56:46;;;;;;;11.73;3.10;;;;;;;21.03;44.71;100345.36;1646101;85;21181;-76
2021/06/05 04:59:14;;;;;;;8.08;2.90;;;;;;;20.96;44.95;100345.47;1641364;87;21512;-74
2021/06/05 05:01:41;;;;;;;10.05;3.15;;;;;;;20.87;45.39;100338.14;1641741;87;21071;-74
2021/06/05 05:04:08;;;;;;;6.72;3.22;;;;;;;20.80;44.82;100339.55;1641038;87;21134;-73
2021/06/05 05:06:37;;;;;;;8.75;3.00;;;;;;;20.73;45.88;100345.89;1607961;89;21074;-75
2021/06/05 05:09:23;;;;;;;4.55;3.22;;;;;;;20.68;45.12;100338.22;1608462;88;21184;-75
2021/06/05 05:11:50;;;;;;;6.22;3.00;;;;;;;20.71;45.16;100341.98;1694670;84;21126;-75
2021/06/05 05:14:18;;;;;;;7.67;2.83;;;;;;;20.84;45.41;100334.34;1687586;84;21105;-75
2021/06/05 05:16:47;;;;;;;4.45;2.70;;;;;;;21.12;45.07;100343.30;1686410;84;21070;-73
2021/06/05 05:19:14;;;;;;;5.75;2.75;;;;;;;21.39;44.41;100340.76;1686403;84;21121;-72
2021/06/05 05:21:42;;;;;;;5.47;3.22;;;;;;;21.68;44.24;100341.66;1683578;84;21106;-74
2021/06/05 05:24:30;;;;;;;7.83;3.85;;;;;;;21.90;42.84;100330.91;1674734;82;21034;-73
2021/06/05 05:26:57;;;;;;;7.20;3.00;;;;;;;22.09;42.88;100330.75;1771253;80;21071;-83
2021/06/05 05:29:26;;;;;;;10.80;3.47;;;;;;;22.21;42.41;100329.75;1730049;81;21068;-83
2021/06/05 05:31:55;;;;;;;10.03;3.02;;;;;;;22.33;40.83;100322.02;1713853;82;21654;-83
2021/06/05 05:34:23;;;;;;;11.05;3.22;;;;;;;22.27;41.32;100325.70;1715764;81;21128;-84
2021/06/05 05:36:52;;;;;;;7.30;3.70;;;;;;;22.19;41.22;100323.63;1728285;81;21050;-83
2021/06/05 05:39:19;;;;;;;8.95;2.75;;;;;;;22.14;41.75;100327.19;1743441;79;21665;-74
2021/06/05 05:41:48;;;;;;;8.45;3.45;;;;;;;22.38;42.61;100320.30;1675193;85;21567;-73
2021/06/05 05:44:17;;;;;;;9.38;3.20;;;;;;;22.73;40.63;100321.38;1683156;85;21093;-73
2021/06/05 05:46:45;;;;;;;5.72;2.35;;;;;;;22.94;40.66;100319.17;1661595;85;21088;-73
2021/06/05 05:49:13;;;;;;;4.50;2.40;;;;;;;23.14;40.72;100318.31;1680210;84;21169;-75
2021/06/05 05:51:40;;;;;;;9.53;2.55;;;;;;;23.43;39.53;100313.59;1681569;83;21057;-74
2021/06/05 05:54:07;;;;;;;7.90;2.55;;;;;;;23.86;39.24;100313.84;1687605;83;21062;-74
2021/06/05 05:56:34;;;;;;;6.58;2.60;;;;;;;24.13;37.81;100310.46;1674746;81;21077;-74
2021/06/05 05:59:01;;;;;;;8.15;3.27;;;;;;;24.38;37.75;100298.80;1679111;85;21049;-75
2021/06/05 06:01:28;;;;;;;5.05;2.92;;;;;;;24.55;37.67;100305.33;1673900;85;21124;-76
2021/06/05 06:03:57;;;;;;;8.23;2.85;;;;;;;24.79;37.07;100299.01;1612324;85;21087;-75
2021/06/05 06:06:26;;;;;;;4.67;2.65;;;;;;;24.96;35.67;100292.52;1661641;85;21086;-75
2021/06/05 06:08:54;;;;;;;7.47;3.08;;;;;;;25.08;36.01;100295.41;1643240;85;21097;-74
2021/06/05 06:11:23;;;;;;;11.03;4.42;;;;;;;25.43;35.00;100297.42;1691136;80;21046;-71
2021/06/05 06:13:51;;;;;;;9.70;3.42;;;;;;;25.74;35.23;100293.94;1694589;83;21044;-70
2021/06/05 06:16:19;;;;;;;15.03;4.60;;;;;;;25.98;33.69;100292.54;1679112;84;21107;-71
2021/06/05 06:18:46;;;;;;;8.43;2.70;;;;;;;26.15;34.45;100284.94;1696990;84;21558;-74
2021/06/05 06:21:16;;;;;;;14.85;3.75;;;;;;;26.32;33.48;100279.72;1740021;81;21099;-71
2021/06/05 06:23:45;;;;;;;10.55;2.83;;;;;;;26.45;32.95;100281.50;1740296;81;21029;-72
2021/06/05 06:26:22;;;;;;;6.47;2.80;;;;;;;26.50;33.26;100281.03;1707121;78;21141;-73
2021/06/05 06:28:49;;;;;;;5.67;2.80;;;;;;;26.52;32.32;100277.17;1672627;84;21099;-74
2021/06/05 06:31:19;;;;;;;11.30;3.00;;;;;;;26.52;32.91;100277.17;1686276;84;21074;-73
2021/06/05 06:33:47;;;;;;;6.80;2.83;;;;;;;26.68;32.75;100270.23;1671891;85;21071;-74
2021/06/05 06:36:15;;;;;;;10.50;3.45;;;;;;;26.81;31.65;100269.33;1676355;84;21049;-73
2021/06/05 06:38:45;;;;;;;8.98;3.67;;;;;;;26.88;31.93;100262.28;1688903;84;21138;-73
2021/06/05 06:41:19;;;;;;;;;;;;;;;26.89;32.18;100264.47;1664855;80;21060;-73
2021/06/05 06:43:46;;;;;;;6.95;2.87;;;;;;;27.03;32.63;100263.03;1667186;85;20205;-71
2021/06/05 06:46:21;;;;;;;7.08;2.80;;;;;;;27.23;33.30;100256.92;1664202;85;21059;-73
2021/06/05 06:48:54;;;;;;;8.13;2.05;;;;;;;27.46;32.13;100251.78;1665866;85;21105;-72
2021/06/05 06:51:23;;;;;;;9.93;3.75;;;;;;;27.60;30.81;100250.64;1679860;84;21439;-72
2021/06/05 06:53:51;;;;;;;7.62;2.45;;;;;;;27.59;31.73;100248.12;1693473;84;21053;-71
2021/06/05 06:56:19;;;;;;;3.80;2.10;;;;;;;27.60;31.15;100247.93;1748576;79;21057;-73
2021/06/05 06:58:47;;;;;;;7.80;3.10;;;;;;;27.59;30.25;100250.82;1772017;80;21095;-74
2021/06/05 07:01:15;;;;;;;8.88;2.25;;;;;;;27.67;31.25;100252.18;1763540;79;21103;-73
2021/06/05 07:03:42;;;;;;;8.58;2.37;;;;;;;27.85;30.29;100247.20;1757118;81;21205;-72
2021/06/05 07:06:09;;;;;;;3.70;2.00;;;;;;;27.99;30.00;100239.77;1757202;81;21047;-73
2021/06/05 07:08:40;;;;;;;8.95;2.33;;;;;;;28.15;28.73;100235.72;1758962;81;21031;-73
2021/06/05 07:11:13;;;;;;;10.15;2.45;;;;;;;28.23;29.06;100237.09;1727024;79;21109;-73
2021/06/05 07:13:41;;;;;;;7.30;2.20;;;;;;;28.41;29.29;100238.28;1716820;83;21074;-74
2021/06/05 07:16:12;;;;;;;8.85;2.75;;;;;;;28.54;27.91;100232.36;1716740;83;21042;-72
2021/06/05 07:18:39;;;;;;;10.13;3.55;;;;;;;28.63;28.40;100235.40;1712436;82;21073;-72
2021/06/05 07:21:08;;;;;;;4.62;1.98;;;;;;;28.64;28.93;100237.11;1698898;82;21121;-72
2021/06/05 07:23:36;;;;;;;6.65;2.10;;;;;;;28.80;27.73;100236.72;1687990;82;21025;-71
2021/06/05 07:26:07;;;;;;;7.62;2.20;;;;;;;28.71;27.76;100240.47;1668364;83;21104;-73
2021/06/05 07:28:36;;;;;;;;;;;;;;;28.29;27.29;100238.27;1731357;81;21115;-72
2021/06/05 07:31:04;;;;;;;10.58;2.55;;;;;;;27.86;27.77;100238.05;1736596;81;20202;-72
2021/06/05 07:33:31;;;;;;;8.70;2.40;;;;;;;27.70;29.28;100234.29;1749348;81;21042;-71
2021/06/05 07:36:00;;;;;;;5.78;2.42;;;;;;;27.85;28.17;100220.14;1752392;81;21082;-72
2021/06/05 07:38:27;;;;;;;5.37;2.33;;;;;;;28.06;28.50;100217.78;1741787;81;21019;-72
2021/06/05 07:40:55;;;;;;;6.55;1.82;;;;;;;28.12;29.27;100222.53;1708763;78;22109;-72
2021/06/05 07:43:25;;;;;;;5.70;1.98;;;;;;;28.31;28.50;100227.27;1706295;83;21113;-73
2021/06/05 07:45:54;;;;;;;4.62;1.62;;;;;;;28.37;28.10;100223.90;1714439;83;21125;-72
2021/06/05 07:48:23;;;;;;;8.35;2.20;;;;;;;28.33;28.02;100217.96;1711636;82;21131;-72
2021/06/05 07:50:50;;;;;;;6.35;2.62;;;;;;;28.20;28.60;100225.23;1700439;83;21075;-73
2021/06/05 07:53:17;;;;;;;4.33;2.02;;;;;;;27.91;28.37;100218.12;1699579;83;21480;-74
2021/06/05 07:55:44;;;;;;;5.05;2.22;;;;;;;27.62;28.61;100218.86;1705406;79;21055;-73
2021/06/05 07:58:14;;;;;;;5.95;1.90;;;;;;;27.27;29.75;100211.83;1726172;82;21066;-72
2021/06/05 08:00:42;;;;;;;11.45;2.27;;;;;;;26.88;28.96;100208.75;1712808;83;21106;-72
2021/06/05 08:03:09;;;;;;;7.08;2.35;;;;;;;26.86;30.40;100214.30;1701362;82;21077;-71
2021/06/05 08:05:38;;;;;;;6.85;2.10;;;;;;;27.13;29.75;100205.66;1691666;82;22304;-72
2021/06/05 08:08:06;;;;;;;4.83;2.08;;;;;;;27.42;29.53;100205.28;1682217;84;21074;-73
2021/06/05 08:10:33;;;;;;;5.35;2.15;;;;;;;27.55;28.98;100211.58;1677589;81;21084;-74
2021/06/05 08:13:01;;;;;;;13.40;2.90;;;;;;;27.48;28.40;100199.73;1672748;85;21068;-73
2021/06/05 08:15:32;;;;;;;9.05;3.27;;;;;;;27.39;28.61;100205.10;1688028;85;21100;-73
2021/06/05 08:18:00;;;;;;;3.55;1.55;;;;;;;27.56;29.15;100201.09;1664850;85;21559;-73
2021/06/05 08:20:32;;;;;;;5.87;1.87;;;;;;;27.88;28.15;100188.67;1665917;84;21106;-73
2021/06/05 08:22:59;;;;;;;4.08;2.00;;;;;;;28.26;28.01;100191.74;1663474;86;21671;-73
2021/06/05 08:25:26;;;;;;;8.25;1.90;;;;;;;28.32;28.60;100193.75;1668749;79;21077;-74
2021/06/05 08:27:55;;;;;;;3.42;2.25;;;;;;;28.25;27.36;100192.23;1723491;82;21864;-73
2021/06/05 08:30:42;;;;;;;3.75;1.90;;;;;;;28.19;28.10;100190.22;1721800;82;22182;-72
2021/06/05 08:33:09;;;;;;;5.37;1.72;;;;;;;28.12;27.20;100185.15;1732702;80;21549;-71
2021/06/05 08:35:37;;;;;;;5.00;3.15;;;;;;;27.92;27.02;100179.21;1747585;82;21002;-73
2021/06/05 08:38:05;;;;;;;5.30;1.70;;;;;;;27.68;29.04;100178.66;1745316;80;21157;-74
2021/06/05 08:40:46;;;;;;;4.22;1.80;;;;;;;27.59;26.50;100172.37;1746240;78;20982;-72
2021/06/05 08:43:37;;;;;;;5.80;1.70;;;;;;;27.53;27.63;100175.22;1752388;80;21136;-72
2021/06/05 08:46:05;;;;;;;;;;;;;;;27.48;27.62;100179.45;1741356;81;21049;-72
2021/06/05 08:48:32;;;;;;;6.30;2.70;;;;;;;27.28;27.03;100175.66;1738025;80;20477;-72
2021/06/05 08:51:28;;;;;;;6.75;2.25;;;;;;;27.13;27.89;100177.28;1735258;81;21038;-73
2021/06/05 08:53:57;;;;;;;5.78;2.30;;;;;;;27.09;29.29;100179.45;1747494;81;21080;-74
2021/06/05 08:56:28;;;;;;;12.95;3.65;;;;;;;27.12;27.37;100172.87;1727174;80;21605;-78
2021/06/05 08:59:01;;;;;;;6.03;2.17;;;;;;;26.83;27.58;100170.05;1702652;82;21006;-77
2021/06/05 09:01:44;;;;;;;7.40;1.98;;;;;;;26.78;28.97;100174.59;1701891;84;21034;-77
2021/06/05 09:04:15;;;;;;;14.93;1.87;;;;;;;27.04;27.68;100171.50;1702418;82;21936;-77
2021/06/05 09:06:58;;;;;;;6.67;2.30;;;;;;;27.38;28.53;100157.45;1712114;81;21042;-78
2021/06/05 09:09:36;;;;;;;6.28;1.82;;;;;;;27.57;27.50;100159.52;1679849;84;21935;-76
2021/06/05 09:12:04;;;;;;;6.85;1.80;;;;;;;27.78;26.91;100165.29;1693437;84;21061;-77
2021/06/05 09:14:31;;;;;;;5.22;1.87;;;;;;;27.82;27.58;100169.36;1700772;82;21646;-78
2021/06/05 09:17:02;;;;;;;7.70;1.50;;;;;;;27.79;26.59;100162.94;1767963;80;21069;-78
2021/06/05 09:19:31;;;;;;;3.50;1.87;;;;;;;27.95;26.79;100165.33;1753600;80;21101;-77
2021/06/05 09:22:16;;;;;;;5.80;1.67;;;;;;;28.23;27.28;100153.16;1752784;78;21141;-77
2021/06/05 09:24:47;;;;;;;9.40;2.05;;;;;;;28.49;24.94;100146.71;1748125;81;21034;-75
2021/06/05 09:27:24;;;;;;;8.93;1.98;;;;;;;28.62;25.14;100149.73;1680660;79;21090;-72
2021/06/05 09:30:08;;;;;;;7.85;1.55;;;;;;;28.47;26.21;100146.03;1701258;83;21009;-72
2021/06/05 09:33:00;;;;;;;6.15;1.72;;;;;;;28.23;25.08;100149.09;1700934;83;21042;-71
2021/06/05 09:35:34;;;;;;;5.22;1.75;;;;;;;27.84;25.86;100143.53;1680219;83;21161;-72
2021/06/05 09:38:26;;;;;;;3.20;1.82;;;;;;;27.54;26.78;100140.94;1693728;82;21495;-72
2021/06/05 09:41:12;;;;;;;5.67;1.60;;;;;;;27.56;26.67;100135.69;1696214;80;20995;-74
2021/06/05 09:43:41;;;;;;;9.93;3.10;;;;;;;27.86;26.26;100129.33;1760728;80;21094;-77
2021/06/05 09:46:24;;;;;;;7.05;2.05;;;;;;;28.17;25.57;100125.41;1763977;80;21085;-77
2021/06/05 09:48:53;;;;;;;5.85;1.92;;;;;;;28.50;24.68;100122.66;1753171;80;21131;-76
2021/06/05 09:51:36;;;;;;;4.05;1.85;;;;;;;28.70;24.45;100116.34;1759325;80;21558;-77
2021/06/05 09:54:11;;;;;;;8.40;2.20;;;;;;;28.69;25.36;100119.21;1751985;80;21563;-76
2021/06/05 09:56:47;;;;;;;5.65;1.82;;;;;;;28.53;25.08;100120.97;1767876;80;21085;-78
2021/06/05 09:59:31;;;;;;;4.12;1.85;;;;;;;28.43;25.13;100121.63;1759115;80;21590;-78
2021/06/05 10:02:01;;;;;;;3.77;1.82;;;;;;;28.41;24.70;100118.24;1771993;80;21112;-78
2021/06/05 10:04:30;;;;;;;5.87;1.70;;;;;;;28.43;24.65;100107.57;1757750;80;21059;-78
2021/06/05 10:06:59;;;;;;;6.90;2.47;;;;;;;28.60;25.32;100108.42;1748445;80;21103;-78
2021/06/05 10:09:31;;;;;;;6.10;1.98;;;;;;;28.63;24.80;100109.41;1763242;80;21015;-80
2021/06/05 10:12:21;;;;;;;7.45;2.20;;;;;;;28.55;24.63;100106.75;1748514;80;21547;-77
2021/06/05 10:15:06;;;;;;;6.85;2.30;;;;;;;28.39;25.45;100109.44;1715972;80;21673;-78
2021/06/05 10:17:58;;;;;;;6.28;2.15;;;;;;;27.95;26.03;100109.37;1738371;80;21073;-77
2021/06/05 10:20:51;;;;;;;4.62;1.75;;;;;;;27.48;26.97;100109.97;1754695;80;21053;-78
2021/06/05 10:23:28;;;;;;;5.45;1.87;;;;;;;27.23;27.58;100115.83;1741675;80;21052;-78
2021/06/05 10:25:59;;;;;;;8.65;2.20;;;;;;;26.99;28.06;100113.38;1750759;80;21072;-77
2021/06/05 10:28:36;;;;;;;6.42;2.50;;;;;;;26.95;27.31;100109.30;1752490;80;21863;-76
2021/06/05 10:31:13;;;;;;;3.20;1.90;;;;;;;26.94;28.27;100112.16;1733437;80;21069;-77
2021/06/05 10:33:44;;;;;;;3.70;1.92;;;;;;;26.89;29.37;100112.64;1754113;80;21118;-75
2021/06/05 10:36:24;;;;;;;5.50;2.17;;;;;;;26.74;28.37;100110.23;1760006;80;21523;-78
2021/06/05 10:39:04;;;;;;;6.92;2.30;;;;;;;26.61;28.47;100116.06;1759257;80;21083;-76
2021/06/05 10:41:35;;;;;;;7.97;2.00;;;;;;;26.66;28.47;100108.32;1747387;78;22218;-72
2021/06/05 10:44:05;;;;;;;6.95;2.02;;;;;;;26.71;28.05;100106.00;1695938;83;21092;-72
2021/06/05 10:46:49;;;;;;;5.10;1.92;;;;;;;26.73;28.33;100105.83;1759336;80;21749;-72
2021/06/05 10:49:50;;;;;;;7.72;2.45;;;;;;;26.73;28.21;100101.77;1759364;81;21028;-72
2021/06/05 10:52:39;;;;;;;9.25;2.25;;;;;;;26.88;27.96;100093.41;1759369;81;21267;-73
2021/06/05 10:55:19;;;;;;;5.78;2.30;;;;;;;27.25;27.86;100085.42;1759423;81;21052;-74
2021/06/05 10:57:52;;;;;;;4.78;1.87;;;;;;;27.32;27.60;100082.39;1731184;80;21541;-78
2021/06/05 11:00:45;;;;;;;6.28;2.05;;;;;;;27.51;26.99;100082.58;1769481;80;21043;-77
2021/06/05 11:03:27;;;;;;;5.62;2.40;;;;;;;27.64;27.99;100086.16;1740933;81;21058;-76
2021/06/05 11:06:01;;;;;;;4.45;1.85;;;;;;;27.64;27.74;100083.97;1746129;81;21773;-76
2021/06/05 11:08:39;;;;;;;5.90;2.45;;;;;;;27.40;26.79;100082.42;1720098;81;21065;-77
2021/06/05 11:11:16;;;;;;;6.40;2.80;;;;;;;27.10;27.41;100089.27;1753984;81;21079;-76
2021/06/05 11:13:46;;;;;;;4.97;2.08;;;;;;;26.82;28.38;100091.34;1746640;81;21089;-75
2021/06/05 11:16:21;;;;;;;8.48;2.40;;;;;;;26.55;28.65;100098.67;1743513;81;21092;-77
2021/06/05 11:18:58;;;;;;;3.72;2.00;;;;;;;26.36;28.92;100090.75;1737695;81;21104;-77
2021/06/05 11:21:33;;;;;;;7.00;2.30;;;;;;;26.13;29.52;100099.38;1749723;81;21028;-77
2021/06/05 11:24:05;;;;;;;6.35;2.58;;;;;;;25.99;29.38;100097.25;1758325;81;21084;-76
2021/06/05 11:26:41;;;;;;;7.90;2.42;;;;;;;25.89;30.09;100096.52;1752903;80;21107;-74
2021/06/05 11:29:28;;;;;;;10.65;2.98;;;;;;;25.74;30.17;100098.88;1742161;81;21363;-73
2021/06/05 11:31:59;;;;;;;7.50;3.00;;;;;;;25.71;30.43;100101.38;1730744;81;21104;-75
2021/06/05 11:34:41;;;;;;;6.12;2.77;;;;;;;25.71;30.91;100095.99;1732792;81;21792;-74
2021/06/05 11:37:19;;;;;;;6.97;2.35;;;;;;;25.88;30.08;100097.50;1731995;81;21604;-73
2021/06/05 11:39:57;;;;;;;5.22;2.30;;;;;;;26.15;29.71;100093.31;1730881;81;21619;-72
2021/06/05 11:42:30;;;;;;;5.53;1.90;;;;;;;26.45;29.00;100089.79;1706367;81;21576;-78
2021/06/05 11:45:02;;;;;;;8.58;2.33;;;;;;;26.73;29.04;100089.14;1688386;82;21074;-78
2021/06/05 11:47:36;;;;;;;3.75;2.15;;;;;;;27.08;27.30;100082.30;1670148;85;21815;-77